Terminal Aerodrome Forecast
Issued by NWS Jackson, KY

Home | Current Version | Previous Version | Text Only | Print | Product List | Glossary On
Versions: 1 2 3 4 5 6 7 8 9 10 11 12 13 14 15 16 17 18 19 20 21 22 23
000
FTUS43 KJKL 010524
TAFJKL
TAF
KJKL 010524Z 0106/0206 VRB06KT 3SM BR VCTS BKN040CB OVC150
      TEMPO 0106/0110 1/2SM +SHRA FG BKN001 BKN010 OVC040
     FM011000 VRB06KT 6SM BR SCT040 BKN130
     FM011500 VRB06KT P6SM VCTS BKN040CB=

USA.gov is the U.S. government's official web portal to all federal, state and local government web resources and services.